Terminal Aerodrome Forecast
Issued by NWS

Home | Current Version | Previous Version | Text Only | Print | Product List | Glossary On
Versions: 1 2 3 4 5 6 7 8 9 10 11 12 13
000
FTUS46 KMTR 091135
TAFOAK
TAF
KOAK 091135Z 0912/1018 16006KT 5SM BR VCSH BKN013 OVC030
     FM092100 19006KT P6SM VCSH SCT015 BKN030 OVC040
     FM100600 17012KT P6SM -SHRA SCT008 OVC012
     FM101000 18018G24KT 6SM -RA BR SCT007 OVC010
     FM101600 18011KT 6SM -RA BR SCT005 OVC007=

USA.gov is the U.S. government's official web portal to all federal, state and local government web resources and services.